This is the latest recevied weather packets stored in our database for station/object DH0DM-13. If no packets are shown the sender has not sent any weather packets the latest 10 day(s).
| Time | Temp. | Humidity | Pressure | Rain* | Wind** | Luminosity | Snow |
|---|---|---|---|---|---|---|---|
| 1787860377 | 20° C | 64% | 989.6 hPa | 0 mm | 1.34 m/s, 103° | - | - |
| 1787859776 | 20.56° C | 63% | 989.5 hPa | 0 mm | 0.89 m/s, 139° | - | - |
| 1787859175 | 20.56° C | 62% | 989.8 hPa | 0 mm | 3.13 m/s, 101° | - | - |
| 1787858574 | 20.56° C | 62% | 989.7 hPa | 0 mm | 2.68 m/s, 85° | - | - |
| 1787857974 | 20.56° C | 61% | 989.9 hPa | 0 mm | 6.26 m/s, 86° | - | - |
| 1787857373 | 20.56° C | 61% | 989.8 hPa | 0 mm | 3.13 m/s, 94° | - | - |
| 1787856772 | 21.11° C | 61% | 989.9 hPa | 0 mm | 0.45 m/s, 58° | - | - |
| 1787856171 | 21.11° C | 60% | 989.9 hPa | 0 mm | 1.79 m/s, 47° | - | - |
| 1787855569 | 21.67° C | 59% | 990 hPa | 0 mm | 4.92 m/s, 92° | - | - |
| 1787854968 | 21.67° C | 58% | 990 hPa | 0 mm | 4.02 m/s, 74° | - | - |
| 1787854367 | 22.22° C | 56% | 989.8 hPa | 0 mm | 6.71 m/s, 68° | - | - |
| 1787853766 | 22.22° C | 56% | 989.8 hPa | 0 mm | 3.13 m/s, 50° | - | - |
| 1787853165 | 22.78° C | 55% | 989.7 hPa | 0 mm | 4.92 m/s, 71° | - | - |
| 1787852564 | 22.78° C | 55% | 990 hPa | 0 mm | 10.28 m/s, 70° | - | - |
| 1787851963 | 23.33° C | 55% | 990 hPa | 0 mm | 2.68 m/s, 143° | - | - |
| 1787851362 | 23.33° C | 54% | 989.9 hPa | 0 mm | 9.83 m/s, 63° | - | - |
| 1787850761 | 23.89° C | 53% | 990 hPa | 0 mm | 6.71 m/s, 59° | - | - |
| 1787850161 | 23.89° C | 53% | 989.7 hPa | 0 mm | 4.92 m/s, 125° | - | - |
| 1787849560 | 24.44° C | 53% | 990.1 hPa | 0 mm | 8.05 m/s, 79° | - | - |
| 1787848959 | 24.44° C | 53% | 990.1 hPa | 0 mm | 5.36 m/s, 131° | - | - |
| 1787848358 | 25° C | 53% | 990.2 hPa | 0 mm | 8.49 m/s, 61° | - | - |
| 1787847757 | 25° C | 53% | 990.5 hPa | 0 mm | 2.68 m/s, 91° | - | - |
| 1787847156 | 25° C | 52% | 990.5 hPa | 0 mm | 8.05 m/s, 59° | - | - |
| 1787846555 | 26.11° C | 51% | 990.4 hPa | 0 mm | 5.36 m/s, 75° | - | - |
| 1787845954 | 26.11° C | 50% | 990.5 hPa | 0 mm | 9.83 m/s, 36° | - | - |
* Rain since midnight (hover to see other rain measurements)
** Current wind speed in m/s (hover to see current wind gust speed)